»·PEaware :: SWA388 KPDX-KRNO

SWA388 :: KPDX-KRNO

FLIGHT INFORMATION

Flight Status: Arrived
Operator:
Southwest Airlines
More flights by this operator :: More flights under this callsign
Pilot: Dave M. (4986)
Aircraft: BOEING 737-800
(B738)
More flights by this aircraft type
Origin: KPDX Portland Intl
United States
Destination: KRNO Reno/Tahoe Intl
United States
More flights between these airports :: More routes between these airports
Route: CASCD2 PAWLI BAARB J5 HARTT EELZA2
File this flight plan on PilotEdge
Remarks: RMK / SIMBRIEF
Altitude:
(Current/Filed)
31,000ft
Speed:
(Current/Filed)
448kts
Departed: 12-Jul-20 10:00 PM
Arrived: 12-Jul-20 11:12 PM
Distance/Time
Traveled:
386nm/1:11
Distance/Time
To Go:
Arrived

Flight Plot

Page will automatically refresh every two minutes.


Map Options




Map Legend


Flown Route
Filed Route
Departure Airport
Arrival Airport
Navaid (VOR, NDB)
Fix

Horizontal Profiles

Position Reports

Time Latitude Longitude Heading Altitude Ground
Speed
12-Jul-20 21:37 45.589856 -122.597331 208 36ft 0kts
12-Jul-20 21:38 45.589856 -122.597331 208 36ft 0kts
12-Jul-20 21:38 45.589856 -122.597331 208 36ft 0kts
12-Jul-20 21:40 45.589856 -122.597331 208 36ft 0kts
12-Jul-20 21:41 45.589856 -122.597331 208 36ft 0kts
12-Jul-20 21:41 45.589856 -122.597331 208 36ft 0kts
12-Jul-20 21:43 45.589856 -122.597331 208 36ft 0kts
12-Jul-20 21:43 45.589856 -122.597331 208 36ft 0kts
12-Jul-20 21:44 45.589856 -122.597331 208 36ft 0kts
12-Jul-20 21:45 45.589856 -122.597331 208 36ft 0kts
12-Jul-20 21:46 45.589856 -122.597331 208 36ft 0kts
12-Jul-20 21:47 45.589856 -122.597331 208 36ft 0kts
12-Jul-20 21:48 45.589856 -122.597331 208 37ft 0kts
12-Jul-20 21:49 45.590254 -122.596852 250 37ft 2kts
12-Jul-20 21:50 45.590215 -122.596298 297 37ft 0kts
12-Jul-20 21:51 45.590216 -122.596299 297 37ft 0kts
12-Jul-20 21:52 45.590216 -122.596299 297 37ft 0kts
12-Jul-20 21:53 45.590833 -122.597899 299 37ft 3kts
12-Jul-20 21:54 45.591145 -122.600667 227 37ft 14kts
12-Jul-20 21:55 45.588523 -122.601263 119 36ft 20kts
12-Jul-20 21:56 45.585132 -122.592517 118 36ft 23kts
12-Jul-20 21:57 45.582755 -122.586399 119 37ft 14kts
12-Jul-20 21:58 45.580928 -122.583742 205 37ft 12kts
12-Jul-20 21:59 45.591935 -122.613270 300 240ft 158kts
12-Jul-20 22:00 45.616741 -122.670690 303 2383ft 200kts
12-Jul-20 22:01 45.649451 -122.750194 300 4834ft 253kts
12-Jul-20 22:02 45.669368 -122.844648 261 7735ft 266kts
12-Jul-20 22:03 45.619678 -122.918929 192 10226ft 306kts
12-Jul-20 22:04 45.531847 -122.882047 145 12530ft 352kts
12-Jul-20 22:05 45.465324 -122.773142 134 15386ft 371kts
12-Jul-20 22:06 45.393962 -122.662561 134 17635ft 384kts
12-Jul-20 22:07 45.319678 -122.547625 134 20674ft 406kts
12-Jul-20 22:08 45.242050 -122.427992 135 23703ft 418kts
12-Jul-20 22:09 45.160456 -122.302842 136 25835ft 444kts
12-Jul-20 22:10 45.074260 -122.173658 143 27841ft 456kts
12-Jul-20 22:11 44.964290 -122.086033 161 29861ft 463kts
12-Jul-20 22:12 44.849083 -122.009777 161 31141ft 489kts
12-Jul-20 22:13 44.725841 -121.928054 161 31132ft 490kts
12-Jul-20 22:14 44.602543 -121.846632 161 31120ft 491kts
12-Jul-20 22:15 44.479176 -121.765519 161 31121ft 491kts
12-Jul-20 22:16 44.355759 -121.684736 161 31147ft 491kts
12-Jul-20 22:17 44.232474 -121.604386 160 31155ft 491kts
12-Jul-20 22:18 44.108703 -121.524080 161 31161ft 491kts
12-Jul-20 22:19 43.985408 -121.444443 161 31164ft 491kts
12-Jul-20 22:20 43.865111 -121.367074 161 31161ft 491kts
12-Jul-20 22:21 43.742491 -121.288467 161 31151ft 490kts
12-Jul-20 22:22 43.618961 -121.209598 161 31152ft 491kts
12-Jul-20 22:23 43.496248 -121.131582 162 31153ft 484kts
12-Jul-20 22:24 43.374423 -121.054489 162 31154ft 478kts
12-Jul-20 22:25 43.254668 -120.979056 162 31155ft 473kts
12-Jul-20 22:26 43.135778 -120.904527 163 31143ft 471kts
12-Jul-20 22:27 43.016667 -120.830207 162 31111ft 471kts
12-Jul-20 22:28 42.899042 -120.757193 162 31112ft 479kts
12-Jul-20 22:29 42.777218 -120.681860 162 31113ft 479kts
12-Jul-20 22:30 42.656306 -120.607411 162 31100ft 475kts
12-Jul-20 22:31 42.539749 -120.535764 161 28965ft 450kts
12-Jul-20 22:32 42.425481 -120.485746 174 26589ft 422kts
12-Jul-20 22:33 42.312315 -120.452444 173 25455ft 414kts
12-Jul-20 22:34 42.201004 -120.419314 173 24485ft 408kts
12-Jul-20 22:35 42.088740 -120.386080 172 24113ft 424kts
12-Jul-20 22:36 41.974057 -120.352099 172 24114ft 423kts
12-Jul-20 22:37 41.858702 -120.318028 173 24097ft 423kts
12-Jul-20 22:38 41.743998 -120.284269 173 24071ft 424kts
12-Jul-20 22:39 41.628805 -120.250482 173 24071ft 424kts
12-Jul-20 22:40 41.514003 -120.216930 173 24071ft 424kts
12-Jul-20 22:41 41.398918 -120.183415 173 24071ft 423kts
12-Jul-20 22:42 41.284153 -120.150115 173 24071ft 424kts
12-Jul-20 22:43 41.169009 -120.116823 173 24071ft 423kts
12-Jul-20 22:44 41.054336 -120.083777 173 24071ft 421kts
12-Jul-20 22:45 40.940862 -120.051192 172 24072ft 417kts
12-Jul-20 22:46 40.828701 -120.019049 171 24086ft 417kts
12-Jul-20 22:47 40.715624 -119.982759 170 24092ft 418kts
12-Jul-20 22:48 40.602940 -119.946405 170 24092ft 418kts
12-Jul-20 22:49 40.489947 -119.910088 170 24092ft 418kts
12-Jul-20 22:50 40.377302 -119.874015 170 24109ft 418kts
12-Jul-20 22:51 40.266442 -119.838552 171 24142ft 398kts
12-Jul-20 22:52 40.158313 -119.804184 170 24154ft 400kts
12-Jul-20 22:53 40.051050 -119.769694 166 22824ft 396kts
12-Jul-20 22:54 39.953179 -119.706220 156 20380ft 390kts
12-Jul-20 22:55 39.852331 -119.677784 182 18055ft 363kts
12-Jul-20 22:56 39.753706 -119.674367 182 15799ft 342kts
12-Jul-20 22:57 39.662687 -119.670233 179 13859ft 319kts
12-Jul-20 22:58 39.575422 -119.661223 179 11950ft 305kts
12-Jul-20 22:59 39.498824 -119.656195 184 10970ft 229kts
12-Jul-20 23:00 39.434783 -119.653254 180 10988ft 242kts
12-Jul-20 23:01 39.367528 -119.646170 179 10994ft 244kts
12-Jul-20 23:02 39.298605 -119.639109 179 10749ft 251kts
12-Jul-20 23:03 39.239915 -119.661763 241 10334ft 200kts
12-Jul-20 23:04 39.231839 -119.727660 293 9649ft 193kts
12-Jul-20 23:05 39.274618 -119.768539 345 9250ft 206kts
12-Jul-20 23:06 39.326805 -119.769817 355 8122ft 182kts
12-Jul-20 23:07 39.375562 -119.769626 356 6979ft 167kts
12-Jul-20 23:08 39.421549 -119.765890 356 5944ft 162kts
12-Jul-20 23:09 39.465028 -119.766802 358 5031ft 155kts
12-Jul-20 23:10 39.504900 -119.766752 359 4417ft 76kts
12-Jul-20 23:11 39.511025 -119.770866 264 4417ft 15kts
12-Jul-20 23:12 39.508111 -119.771489 180 4417ft 16kts
12-Jul-20 23:13 39.505578 -119.772624 198 4417ft 6kts
12-Jul-20 23:14 39.505394 -119.772705 198 4417ft 0kts

Navigation Log

Ident Type
Flight plan parsing failed, navigation log unavailable